sensor_id;sensor_type;location;lat;lon;timestamp;temperature;humidity
23323;DHT22;11833;52.554;13.554;2024-01-25T00:00:29;8.10;99.90
23323;DHT22;11833;52.554;13.554;2024-01-25T00:02:55;8.10;99.90
23323;DHT22;11833;52.554;13.554;2024-01-25T00:05:21;8.20;99.90
23323;DHT22;11833;52.554;13.554;2024-01-25T00:07:50;8.20;99.90
23323;DHT22;11833;52.554;13.554;2024-01-25T00:10:17;8.10;99.90
23323;DHT22;11833;52.554;13.554;2024-01-25T00:12:43;8.10;99.90
23323;DHT22;11833;52.554;13.554;2024-01-25T00:15:09;8.20;99.90
23323;DHT22;11833;52.554;13.554;2024-01-25T00:17:36;8.20;99.90
23323;DHT22;11833;52.554;13.554;2024-01-25T00:20:03;8.20;99.90
23323;DHT22;11833;52.554;13.554;2024-01-25T00:22:29;8.20;99.90
23323;DHT22;11833;52.554;13.554;2024-01-25T00:24:55;8.10;99.90
23323;DHT22;11833;52.554;13.554;2024-01-25T00:27:21;8.10;99.90
23323;DHT22;11833;52.554;13.554;2024-01-25T00:29:46;8.10;99.90
23323;DHT22;11833;52.554;13.554;2024-01-25T00:32:12;8.10;99.90
23323;DHT22;11833;52.554;13.554;2024-01-25T00:34:38;8.10;99.90
23323;DHT22;11833;52.554;13.554;2024-01-25T00:37:04;8.10;99.90
23323;DHT22;11833;52.554;13.554;2024-01-25T00:39:30;8.10;99.90
23323;DHT22;11833;52.554;13.554;2024-01-25T00:42:03;8.10;99.90
23323;DHT22;11833;52.554;13.554;2024-01-25T00:44:31;8.10;99.90
23323;DHT22;11833;52.554;13.554;2024-01-25T00:46:57;8.10;99.90
23323;DHT22;11833;52.554;13.554;2024-01-25T00:49:23;8.10;99.90
23323;DHT22;11833;52.554;13.554;2024-01-25T00:51:50;8.00;99.90
23323;DHT22;11833;52.554;13.554;2024-01-25T00:54:21;8.00;99.90
23323;DHT22;11833;52.554;13.554;2024-01-25T00:56:47;8.10;99.90
23323;DHT22;11833;52.554;13.554;2024-01-25T00:59:16;8.10;99.90
23323;DHT22;11833;52.554;13.554;2024-01-25T01:01:45;8.00;99.90
23323;DHT22;11833;52.554;13.554;2024-01-25T01:04:12;8.10;99.90
23323;DHT22;11833;52.554;13.554;2024-01-25T01:06:38;8.00;99.90
23323;DHT22;11833;52.554;13.554;2024-01-25T01:09:04;8.00;99.90
23323;DHT22;11833;52.554;13.554;2024-01-25T01:11:30;8.00;99.90
23323;DHT22;11833;52.554;13.554;2024-01-25T01:13:56;8.00;99.90
23323;DHT22;11833;52.554;13.554;2024-01-25T01:16:22;8.00;99.90
23323;DHT22;11833;52.554;13.554;2024-01-25T01:18:47;8.00;99.90
23323;DHT22;11833;52.554;13.554;2024-01-25T01:21:13;8.00;99.90
23323;DHT22;11833;52.554;13.554;2024-01-25T01:23:39;8.00;99.90
23323;DHT22;11833;52.554;13.554;2024-01-25T01:26:04;8.00;99.90
23323;DHT22;11833;52.554;13.554;2024-01-25T01:28:31;8.00;99.90
23323;DHT22;11833;52.554;13.554;2024-01-25T01:30:57;8.00;99.90
23323;DHT22;11833;52.554;13.554;2024-01-25T01:33:22;8.00;99.90
23323;DHT22;11833;52.554;13.554;2024-01-25T01:35:48;8.00;99.90
23323;DHT22;11833;52.554;13.554;2024-01-25T01:38:14;8.00;99.90
23323;DHT22;11833;52.554;13.554;2024-01-25T01:40:39;8.00;99.90
23323;DHT22;11833;52.554;13.554;2024-01-25T01:43:05;8.00;99.90
23323;DHT22;11833;52.554;13.554;2024-01-25T01:45:31;8.00;99.90
23323;DHT22;11833;52.554;13.554;2024-01-25T01:47:57;8.00;99.90
23323;DHT22;11833;52.554;13.554;2024-01-25T01:50:24;8.00;99.90
23323;DHT22;11833;52.554;13.554;2024-01-25T01:52:50;8.00;99.90
23323;DHT22;11833;52.554;13.554;2024-01-25T01:55:17;8.00;99.90
23323;DHT22;11833;52.554;13.554;2024-01-25T01:57:44;8.00;99.90
23323;DHT22;11833;52.554;13.554;2024-01-25T02:00:12;8.00;99.90
23323;DHT22;11833;52.554;13.554;2024-01-25T02:02:40;8.00;99.90
23323;DHT22;11833;52.554;13.554;2024-01-25T02:05:06;8.00;99.90
23323;DHT22;11833;52.554;13.554;2024-01-25T02:07:32;8.00;99.90
23323;DHT22;11833;52.554;13.554;2024-01-25T02:09:58;8.00;99.90
23323;DHT22;11833;52.554;13.554;2024-01-25T02:12:23;8.00;99.90
23323;DHT22;11833;52.554;13.554;2024-01-25T02:14:49;8.00;99.90
23323;DHT22;11833;52.554;13.554;2024-01-25T02:17:15;8.00;99.90
23323;DHT22;11833;52.554;13.554;2024-01-25T02:19:40;7.90;99.90
23323;DHT22;11833;52.554;13.554;2024-01-25T02:22:06;7.90;99.90
23323;DHT22;11833;52.554;13.554;2024-01-25T02:24:32;7.90;99.90
23323;DHT22;11833;52.554;13.554;2024-01-25T02:26:58;7.90;99.90
23323;DHT22;11833;52.554;13.554;2024-01-25T02:29:23;7.90;99.90
23323;DHT22;11833;52.554;13.554;2024-01-25T02:31:49;7.90;99.90
23323;DHT22;11833;52.554;13.554;2024-01-25T02:34:15;7.90;99.90
23323;DHT22;11833;52.554;13.554;2024-01-25T02:36:40;7.90;99.90
23323;DHT22;11833;52.554;13.554;2024-01-25T02:39:06;7.90;99.90
23323;DHT22;11833;52.554;13.554;2024-01-25T02:41:32;7.90;99.90
23323;DHT22;11833;52.554;13.554;2024-01-25T02:43:59;7.80;99.90
23323;DHT22;11833;52.554;13.554;2024-01-25T02:46:25;7.80;99.90
23323;DHT22;11833;52.554;13.554;2024-01-25T02:48:51;7.80;99.90
23323;DHT22;11833;52.554;13.554;2024-01-25T02:51:16;7.80;99.90
23323;DHT22;11833;52.554;13.554;2024-01-25T02:53:42;7.80;99.90
23323;DHT22;11833;52.554;13.554;2024-01-25T02:56:08;7.80;99.90
23323;DHT22;11833;52.554;13.554;2024-01-25T02:58:33;7.80;99.90
23323;DHT22;11833;52.554;13.554;2024-01-25T03:00:59;7.80;99.90
23323;DHT22;11833;52.554;13.554;2024-01-25T03:03:25;7.80;99.90
23323;DHT22;11833;52.554;13.554;2024-01-25T03:05:53;7.80;99.90
23323;DHT22;11833;52.554;13.554;2024-01-25T03:08:19;7.80;99.90
23323;DHT22;11833;52.554;13.554;2024-01-25T03:10:46;7.80;99.90
23323;DHT22;11833;52.554;13.554;2024-01-25T03:13:15;7.80;99.90
23323;DHT22;11833;52.554;13.554;2024-01-25T03:15:42;7.80;99.90
23323;DHT22;11833;52.554;13.554;2024-01-25T03:18:09;7.80;99.90
23323;DHT22;11833;52.554;13.554;2024-01-25T03:20:35;7.80;99.90
23323;DHT22;11833;52.554;13.554;2024-01-25T03:23:01;7.80;99.90
23323;DHT22;11833;52.554;13.554;2024-01-25T03:25:26;7.80;99.90
23323;DHT22;11833;52.554;13.554;2024-01-25T03:27:52;7.80;99.90
23323;DHT22;11833;52.554;13.554;2024-01-25T03:30:18;7.80;99.90
23323;DHT22;11833;52.554;13.554;2024-01-25T03:32:45;7.80;99.90
23323;DHT22;11833;52.554;13.554;2024-01-25T03:35:11;7.80;99.90
23323;DHT22;11833;52.554;13.554;2024-01-25T03:37:37;7.80;99.90
23323;DHT22;11833;52.554;13.554;2024-01-25T03:40:03;7.80;99.90
23323;DHT22;11833;52.554;13.554;2024-01-25T03:42:30;7.80;99.90
23323;DHT22;11833;52.554;13.554;2024-01-25T03:44:56;7.80;99.90
23323;DHT22;11833;52.554;13.554;2024-01-25T03:47:21;7.80;99.90
23323;DHT22;11833;52.554;13.554;2024-01-25T03:49:47;7.70;99.90
23323;DHT22;11833;52.554;13.554;2024-01-25T03:52:13;7.70;99.90
23323;DHT22;11833;52.554;13.554;2024-01-25T03:54:39;7.70;99.90
23323;DHT22;11833;52.554;13.554;2024-01-25T03:57:05;7.70;99.90
23323;DHT22;11833;52.554;13.554;2024-01-25T03:59:31;7.70;99.90
23323;DHT22;11833;52.554;13.554;2024-01-25T04:01:56;7.80;99.90
23323;DHT22;11833;52.554;13.554;2024-01-25T04:04:22;7.70;99.90
23323;DHT22;11833;52.554;13.554;2024-01-25T04:06:48;7.80;99.90
23323;DHT22;11833;52.554;13.554;2024-01-25T04:09:14;7.70;99.90
23323;DHT22;11833;52.554;13.554;2024-01-25T04:11:42;7.80;99.90
23323;DHT22;11833;52.554;13.554;2024-01-25T04:14:08;7.70;99.90
23323;DHT22;11833;52.554;13.554;2024-01-25T04:16:34;7.70;99.90
23323;DHT22;11833;52.554;13.554;2024-01-25T04:19:00;7.70;99.90
23323;DHT22;11833;52.554;13.554;2024-01-25T04:21:26;7.70;99.90
23323;DHT22;11833;52.554;13.554;2024-01-25T04:23:53;7.70;99.90
23323;DHT22;11833;52.554;13.554;2024-01-25T04:26:18;7.70;99.90
23323;DHT22;11833;52.554;13.554;2024-01-25T04:28:44;7.70;99.90
23323;DHT22;11833;52.554;13.554;2024-01-25T04:31:10;7.70;99.90
23323;DHT22;11833;52.554;13.554;2024-01-25T04:33:37;7.70;99.90
23323;DHT22;11833;52.554;13.554;2024-01-25T04:36:03;7.70;99.90
23323;DHT22;11833;52.554;13.554;2024-01-25T04:38:29;7.70;99.90
23323;DHT22;11833;52.554;13.554;2024-01-25T04:40:55;7.70;99.90
23323;DHT22;11833;52.554;13.554;2024-01-25T04:43:21;7.70;99.90
23323;DHT22;11833;52.554;13.554;2024-01-25T04:45:46;7.70;99.90
23323;DHT22;11833;52.554;13.554;2024-01-25T04:48:13;7.70;99.90
23323;DHT22;11833;52.554;13.554;2024-01-25T04:50:38;7.70;99.90
23323;DHT22;11833;52.554;13.554;2024-01-25T04:53:04;7.70;99.90
23323;DHT22;11833;52.554;13.554;2024-01-25T04:55:30;7.70;99.90
23323;DHT22;11833;52.554;13.554;2024-01-25T04:57:56;7.70;99.90
23323;DHT22;11833;52.554;13.554;2024-01-25T05:00:22;7.70;99.90
23323;DHT22;11833;52.554;13.554;2024-01-25T05:02:48;7.70;99.90
23323;DHT22;11833;52.554;13.554;2024-01-25T05:05:14;7.60;99.90
23323;DHT22;11833;52.554;13.554;2024-01-25T05:07:41;7.60;99.90
23323;DHT22;11833;52.554;13.554;2024-01-25T05:10:07;7.60;99.90
23323;DHT22;11833;52.554;13.554;2024-01-25T05:12:33;7.60;99.90
23323;DHT22;11833;52.554;13.554;2024-01-25T05:14:59;7.60;99.90
23323;DHT22;11833;52.554;13.554;2024-01-25T05:17:25;7.60;99.90
23323;DHT22;11833;52.554;13.554;2024-01-25T05:19:51;7.60;99.90
23323;DHT22;11833;52.554;13.554;2024-01-25T05:22:16;7.60;99.90
23323;DHT22;11833;52.554;13.554;2024-01-25T05:24:42;7.60;99.90
23323;DHT22;11833;52.554;13.554;2024-01-25T05:27:08;7.60;99.90
23323;DHT22;11833;52.554;13.554;2024-01-25T05:29:34;7.60;99.90
23323;DHT22;11833;52.554;13.554;2024-01-25T05:32:00;7.60;99.90
23323;DHT22;11833;52.554;13.554;2024-01-25T05:34:26;7.60;99.90
23323;DHT22;11833;52.554;13.554;2024-01-25T05:36:52;7.60;99.90
23323;DHT22;11833;52.554;13.554;2024-01-25T05:39:18;7.60;99.90
23323;DHT22;11833;52.554;13.554;2024-01-25T05:41:45;7.60;99.90
23323;DHT22;11833;52.554;13.554;2024-01-25T05:44:12;7.60;99.90
23323;DHT22;11833;52.554;13.554;2024-01-25T05:46:38;7.60;99.90
23323;DHT22;11833;52.554;13.554;2024-01-25T05:49:04;7.60;99.90
23323;DHT22;11833;52.554;13.554;2024-01-25T05:51:29;7.60;99.90
23323;DHT22;11833;52.554;13.554;2024-01-25T05:53:55;7.50;99.90
23323;DHT22;11833;52.554;13.554;2024-01-25T05:56:21;7.50;99.90
23323;DHT22;11833;52.554;13.554;2024-01-25T05:58:47;7.50;99.90
23323;DHT22;11833;52.554;13.554;2024-01-25T06:01:13;7.60;99.90
23323;DHT22;11833;52.554;13.554;2024-01-25T06:03:38;7.60;99.90
23323;DHT22;11833;52.554;13.554;2024-01-25T06:06:04;7.60;99.90
23323;DHT22;11833;52.554;13.554;2024-01-25T06:08:33;7.60;99.90
23323;DHT22;11833;52.554;13.554;2024-01-25T06:10:59;7.60;99.90
23323;DHT22;11833;52.554;13.554;2024-01-25T06:13:24;7.60;99.90
23323;DHT22;11833;52.554;13.554;2024-01-25T06:15:50;7.60;99.90
23323;DHT22;11833;52.554;13.554;2024-01-25T06:18:16;7.60;99.90
23323;DHT22;11833;52.554;13.554;2024-01-25T06:20:42;7.60;99.90
23323;DHT22;11833;52.554;13.554;2024-01-25T06:23:09;7.60;99.90
23323;DHT22;11833;52.554;13.554;2024-01-25T06:25:35;7.60;99.90
23323;DHT22;11833;52.554;13.554;2024-01-25T06:28:01;7.50;99.90
23323;DHT22;11833;52.554;13.554;2024-01-25T06:30:29;7.50;99.90
23323;DHT22;11833;52.554;13.554;2024-01-25T06:32:55;7.50;99.90
23323;DHT22;11833;52.554;13.554;2024-01-25T06:35:21;7.60;99.90
23323;DHT22;11833;52.554;13.554;2024-01-25T06:37:46;7.60;99.90
23323;DHT22;11833;52.554;13.554;2024-01-25T06:40:12;7.60;99.90
23323;DHT22;11833;52.554;13.554;2024-01-25T06:42:38;7.60;99.90
23323;DHT22;11833;52.554;13.554;2024-01-25T06:45:04;7.60;99.90
23323;DHT22;11833;52.554;13.554;2024-01-25T06:47:30;7.60;99.90
23323;DHT22;11833;52.554;13.554;2024-01-25T06:49:55;7.60;99.90
23323;DHT22;11833;52.554;13.554;2024-01-25T06:52:21;7.60;99.90
23323;DHT22;11833;52.554;13.554;2024-01-25T06:54:47;7.60;99.90
23323;DHT22;11833;52.554;13.554;2024-01-25T06:57:13;7.60;99.90
23323;DHT22;11833;52.554;13.554;2024-01-25T06:59:42;7.60;99.90
23323;DHT22;11833;52.554;13.554;2024-01-25T07:02:08;7.60;99.90
23323;DHT22;11833;52.554;13.554;2024-01-25T07:04:33;7.60;99.90
23323;DHT22;11833;52.554;13.554;2024-01-25T07:06:59;7.60;99.90
23323;DHT22;11833;52.554;13.554;2024-01-25T07:09:26;7.60;99.90
23323;DHT22;11833;52.554;13.554;2024-01-25T07:11:51;7.60;99.90
23323;DHT22;11833;52.554;13.554;2024-01-25T07:14:17;7.60;99.90
23323;DHT22;11833;52.554;13.554;2024-01-25T07:16:43;7.60;99.90
23323;DHT22;11833;52.554;13.554;2024-01-25T07:19:08;7.60;99.90
23323;DHT22;11833;52.554;13.554;2024-01-25T07:21:34;7.50;99.90
23323;DHT22;11833;52.554;13.554;2024-01-25T07:24:03;7.60;99.90
23323;DHT22;11833;52.554;13.554;2024-01-25T07:26:32;7.60;99.90
23323;DHT22;11833;52.554;13.554;2024-01-25T07:28:58;7.60;99.90
23323;DHT22;11833;52.554;13.554;2024-01-25T07:31:27;7.60;99.90
23323;DHT22;11833;52.554;13.554;2024-01-25T07:33:53;7.60;99.90
23323;DHT22;11833;52.554;13.554;2024-01-25T07:36:20;7.60;99.90
23323;DHT22;11833;52.554;13.554;2024-01-25T07:38:46;7.60;99.90
23323;DHT22;11833;52.554;13.554;2024-01-25T07:41:15;7.60;99.90
23323;DHT22;11833;52.554;13.554;2024-01-25T07:43:41;7.60;99.90
23323;DHT22;11833;52.554;13.554;2024-01-25T07:46:08;7.60;99.90
23323;DHT22;11833;52.554;13.554;2024-01-25T07:48:35;7.60;99.90
23323;DHT22;11833;52.554;13.554;2024-01-25T07:51:01;7.50;99.90
23323;DHT22;11833;52.554;13.554;2024-01-25T07:53:27;7.60;99.90
23323;DHT22;11833;52.554;13.554;2024-01-25T07:55:52;7.60;99.90
23323;DHT22;11833;52.554;13.554;2024-01-25T07:58:18;7.60;99.90
23323;DHT22;11833;52.554;13.554;2024-01-25T08:00:44;7.60;99.90
23323;DHT22;11833;52.554;13.554;2024-01-25T08:03:11;7.60;99.90
23323;DHT22;11833;52.554;13.554;2024-01-25T08:05:36;7.60;99.90
23323;DHT22;11833;52.554;13.554;2024-01-25T08:08:02;7.60;99.90
23323;DHT22;11833;52.554;13.554;2024-01-25T08:10:28;7.60;99.90
23323;DHT22;11833;52.554;13.554;2024-01-25T08:12:54;7.60;99.90
23323;DHT22;11833;52.554;13.554;2024-01-25T08:15:20;7.60;99.90
23323;DHT22;11833;52.554;13.554;2024-01-25T08:17:45;7.60;99.90
23323;DHT22;11833;52.554;13.554;2024-01-25T08:20:11;7.60;99.90
23323;DHT22;11833;52.554;13.554;2024-01-25T08:22:40;7.60;99.90
23323;DHT22;11833;52.554;13.554;2024-01-25T08:25:06;7.60;99.90
23323;DHT22;11833;52.554;13.554;2024-01-25T08:27:33;7.60;99.90
23323;DHT22;11833;52.554;13.554;2024-01-25T08:29:58;7.60;99.90
23323;DHT22;11833;52.554;13.554;2024-01-25T08:32:24;7.70;99.90
23323;DHT22;11833;52.554;13.554;2024-01-25T08:34:50;7.70;99.90
23323;DHT22;11833;52.554;13.554;2024-01-25T08:37:15;7.70;99.90
23323;DHT22;11833;52.554;13.554;2024-01-25T08:39:41;7.70;99.90
23323;DHT22;11833;52.554;13.554;2024-01-25T08:42:08;7.70;99.90
23323;DHT22;11833;52.554;13.554;2024-01-25T08:44:34;7.70;99.90
23323;DHT22;11833;52.554;13.554;2024-01-25T08:46:59;7.70;99.90
23323;DHT22;11833;52.554;13.554;2024-01-25T08:49:25;7.70;99.90
23323;DHT22;11833;52.554;13.554;2024-01-25T08:51:51;7.70;99.90
23323;DHT22;11833;52.554;13.554;2024-01-25T08:54:17;7.70;99.90
23323;DHT22;11833;52.554;13.554;2024-01-25T08:56:42;7.80;99.90
23323;DHT22;11833;52.554;13.554;2024-01-25T08:59:08;7.80;99.90
23323;DHT22;11833;52.554;13.554;2024-01-25T09:01:34;7.80;99.90
23323;DHT22;11833;52.554;13.554;2024-01-25T09:03:59;7.80;99.90
23323;DHT22;11833;52.554;13.554;2024-01-25T09:06:29;7.80;99.90
23323;DHT22;11833;52.554;13.554;2024-01-25T09:08:55;7.80;99.90
23323;DHT22;11833;52.554;13.554;2024-01-25T09:11:21;7.80;99.90
23323;DHT22;11833;52.554;13.554;2024-01-25T09:13:47;7.80;99.90
23323;DHT22;11833;52.554;13.554;2024-01-25T09:16:15;7.90;99.90
23323;DHT22;11833;52.554;13.554;2024-01-25T09:18:41;7.90;99.90
23323;DHT22;11833;52.554;13.554;2024-01-25T09:21:06;7.90;99.90
23323;DHT22;11833;52.554;13.554;2024-01-25T09:23:32;7.90;99.90
23323;DHT22;11833;52.554;13.554;2024-01-25T09:25:58;7.90;99.90
23323;DHT22;11833;52.554;13.554;2024-01-25T09:28:23;7.90;99.90
23323;DHT22;11833;52.554;13.554;2024-01-25T09:30:49;7.90;99.90
23323;DHT22;11833;52.554;13.554;2024-01-25T09:33:15;7.90;99.90
23323;DHT22;11833;52.554;13.554;2024-01-25T09:35:40;7.90;99.90
23323;DHT22;11833;52.554;13.554;2024-01-25T09:38:06;7.90;99.90
23323;DHT22;11833;52.554;13.554;2024-01-25T09:40:32;7.90;99.90
23323;DHT22;11833;52.554;13.554;2024-01-25T09:42:59;7.90;99.90
23323;DHT22;11833;52.554;13.554;2024-01-25T09:45:24;7.90;99.90
23323;DHT22;11833;52.554;13.554;2024-01-25T09:47:50;7.90;99.90
23323;DHT22;11833;52.554;13.554;2024-01-25T09:50:16;7.90;99.90
23323;DHT22;11833;52.554;13.554;2024-01-25T09:52:54;8.00;99.90
23323;DHT22;11833;52.554;13.554;2024-01-25T09:55:25;7.90;99.90
23323;DHT22;11833;52.554;13.554;2024-01-25T09:57:55;7.90;99.90
23323;DHT22;11833;52.554;13.554;2024-01-25T10:00:22;8.00;99.90
23323;DHT22;11833;52.554;13.554;2024-01-25T10:02:49;8.00;99.90
23323;DHT22;11833;52.554;13.554;2024-01-25T10:05:17;8.00;99.90
23323;DHT22;11833;52.554;13.554;2024-01-25T10:07:45;8.00;99.90
23323;DHT22;11833;52.554;13.554;2024-01-25T10:10:13;8.00;99.90
23323;DHT22;11833;52.554;13.554;2024-01-25T10:12:42;8.00;99.90
23323;DHT22;11833;52.554;13.554;2024-01-25T10:15:09;8.00;99.90
23323;DHT22;11833;52.554;13.554;2024-01-25T10:17:35;8.00;99.90
23323;DHT22;11833;52.554;13.554;2024-01-25T10:20:01;8.00;99.90
23323;DHT22;11833;52.554;13.554;2024-01-25T10:22:27;8.00;99.90
23323;DHT22;11833;52.554;13.554;2024-01-25T10:24:52;8.00;99.90
23323;DHT22;11833;52.554;13.554;2024-01-25T10:27:21;8.00;99.90
23323;DHT22;11833;52.554;13.554;2024-01-25T10:29:49;8.00;99.90
23323;DHT22;11833;52.554;13.554;2024-01-25T10:32:16;8.00;99.90
23323;DHT22;11833;52.554;13.554;2024-01-25T10:34:43;8.10;99.90
23323;DHT22;11833;52.554;13.554;2024-01-25T10:37:13;8.10;99.90
23323;DHT22;11833;52.554;13.554;2024-01-25T10:39:40;8.10;99.90
23323;DHT22;11833;52.554;13.554;2024-01-25T10:42:07;8.20;99.90
23323;DHT22;11833;52.554;13.554;2024-01-25T10:44:32;8.20;99.80
23323;DHT22;11833;52.554;13.554;2024-01-25T10:46:59;8.20;99.50
23323;DHT22;11833;52.554;13.554;2024-01-25T10:49:25;8.20;99.40
23323;DHT22;11833;52.554;13.554;2024-01-25T10:51:51;8.20;99.80
23323;DHT22;11833;52.554;13.554;2024-01-25T10:54:18;8.20;99.50
23323;DHT22;11833;52.554;13.554;2024-01-25T10:56:46;8.30;99.30
23323;DHT22;11833;52.554;13.554;2024-01-25T10:59:13;8.30;99.30
23323;DHT22;11833;52.554;13.554;2024-01-25T11:01:48;8.30;99.30
23323;DHT22;11833;52.554;13.554;2024-01-25T11:04:17;8.40;99.30
23323;DHT22;11833;52.554;13.554;2024-01-25T11:06:47;8.40;99.10
23323;DHT22;11833;52.554;13.554;2024-01-25T11:09:20;8.40;98.80
23323;DHT22;11833;52.554;13.554;2024-01-25T11:11:47;8.40;98.90
23323;DHT22;11833;52.554;13.554;2024-01-25T11:14:14;8.40;99.00
23323;DHT22;11833;52.554;13.554;2024-01-25T11:16:42;8.30;99.10
23323;DHT22;11833;52.554;13.554;2024-01-25T11:19:20;8.30;99.30
23323;DHT22;11833;52.554;13.554;2024-01-25T11:21:48;8.40;99.20
23323;DHT22;11833;52.554;13.554;2024-01-25T11:26:44;8.40;98.90
23323;DHT22;11833;52.554;13.554;2024-01-25T11:29:18;8.50;99.00
23323;DHT22;11833;52.554;13.554;2024-01-25T11:31:47;8.50;98.90
23323;DHT22;11833;52.554;13.554;2024-01-25T11:34:14;8.60;98.40
23323;DHT22;11833;52.554;13.554;2024-01-25T11:36:44;8.60;98.40
23323;DHT22;11833;52.554;13.554;2024-01-25T11:39:10;8.60;98.50
23323;DHT22;11833;52.554;13.554;2024-01-25T11:41:42;8.60;98.50
23323;DHT22;11833;52.554;13.554;2024-01-25T11:44:10;8.60;98.50
23323;DHT22;11833;52.554;13.554;2024-01-25T11:46:36;8.60;98.50
23323;DHT22;11833;52.554;13.554;2024-01-25T11:49:02;8.70;98.20
23323;DHT22;11833;52.554;13.554;2024-01-25T11:51:28;8.70;98.00
23323;DHT22;11833;52.554;13.554;2024-01-25T11:53:53;8.70;98.30
23323;DHT22;11833;52.554;13.554;2024-01-25T11:56:29;8.80;97.70
23323;DHT22;11833;52.554;13.554;2024-01-25T11:58:57;8.80;97.70
23323;DHT22;11833;52.554;13.554;2024-01-25T12:01:24;8.80;97.60
23323;DHT22;11833;52.554;13.554;2024-01-25T12:03:51;8.80;97.60
23323;DHT22;11833;52.554;13.554;2024-01-25T12:06:17;8.90;97.50
23323;DHT22;11833;52.554;13.554;2024-01-25T12:08:44;8.80;97.40
23323;DHT22;11833;52.554;13.554;2024-01-25T12:11:11;8.80;97.20
23323;DHT22;11833;52.554;13.554;2024-01-25T12:13:41;8.90;97.30
23323;DHT22;11833;52.554;13.554;2024-01-25T12:16:08;9.00;97.10
23323;DHT22;11833;52.554;13.554;2024-01-25T12:18:34;9.30;96.80
23323;DHT22;11833;52.554;13.554;2024-01-25T12:21:04;9.90;96.20
23323;DHT22;11833;52.554;13.554;2024-01-25T12:23:37;10.40;94.90
23323;DHT22;11833;52.554;13.554;2024-01-25T12:26:09;11.10;93.90
23323;DHT22;11833;52.554;13.554;2024-01-25T12:28:36;11.40;92.50
23323;DHT22;11833;52.554;13.554;2024-01-25T12:31:04;11.60;91.50
23323;DHT22;11833;52.554;13.554;2024-01-25T12:33:32;11.70;91.30
23323;DHT22;11833;52.554;13.554;2024-01-25T12:35:58;11.30;91.60
23323;DHT22;11833;52.554;13.554;2024-01-25T12:38:25;11.60;91.80
23323;DHT22;11833;52.554;13.554;2024-01-25T12:40:52;11.90;90.50
23323;DHT22;11833;52.554;13.554;2024-01-25T12:43:18;12.30;90.20
23323;DHT22;11833;52.554;13.554;2024-01-25T12:45:45;12.50;89.40
23323;DHT22;11833;52.554;13.554;2024-01-25T12:48:10;12.50;89.40
23323;DHT22;11833;52.554;13.554;2024-01-25T12:50:37;12.20;88.70
23323;DHT22;11833;52.554;13.554;2024-01-25T12:53:03;11.90;90.10
23323;DHT22;11833;52.554;13.554;2024-01-25T12:55:30;12.10;90.00
23323;DHT22;11833;52.554;13.554;2024-01-25T12:57:57;12.20;89.10
23323;DHT22;11833;52.554;13.554;2024-01-25T13:00:23;12.30;89.50
23323;DHT22;11833;52.554;13.554;2024-01-25T13:02:49;12.70;88.30
23323;DHT22;11833;52.554;13.554;2024-01-25T13:05:16;13.20;85.70
23323;DHT22;11833;52.554;13.554;2024-01-25T13:07:41;12.90;88.50
23323;DHT22;11833;52.554;13.554;2024-01-25T13:10:09;13.10;86.00
23323;DHT22;11833;52.554;13.554;2024-01-25T13:12:39;13.50;85.50
23323;DHT22;11833;52.554;13.554;2024-01-25T13:15:06;13.80;84.40
23323;DHT22;11833;52.554;13.554;2024-01-25T13:17:34;14.10;82.90
23323;DHT22;11833;52.554;13.554;2024-01-25T13:20:00;14.20;82.40
23323;DHT22;11833;52.554;13.554;2024-01-25T13:22:26;14.20;81.20
23323;DHT22;11833;52.554;13.554;2024-01-25T13:24:52;14.30;80.40
23323;DHT22;11833;52.554;13.554;2024-01-25T13:27:18;14.40;78.90
23323;DHT22;11833;52.554;13.554;2024-01-25T13:29:44;13.90;80.40
23323;DHT22;11833;52.554;13.554;2024-01-25T13:32:09;13.40;81.80
23323;DHT22;11833;52.554;13.554;2024-01-25T13:34:37;12.70;83.20
23323;DHT22;11833;52.554;13.554;2024-01-25T13:37:02;12.30;86.10
23323;DHT22;11833;52.554;13.554;2024-01-25T13:39:28;11.70;86.40
23323;DHT22;11833;52.554;13.554;2024-01-25T13:41:54;11.30;89.70
23323;DHT22;11833;52.554;13.554;2024-01-25T13:44:21;11.10;90.30
23323;DHT22;11833;52.554;13.554;2024-01-25T13:46:47;11.10;90.70
23323;DHT22;11833;52.554;13.554;2024-01-25T13:49:13;11.20;90.40
23323;DHT22;11833;52.554;13.554;2024-01-25T13:51:39;11.00;90.00
23323;DHT22;11833;52.554;13.554;2024-01-25T13:54:04;10.80;90.50
23323;DHT22;11833;52.554;13.554;2024-01-25T13:56:30;10.60;91.30
23323;DHT22;11833;52.554;13.554;2024-01-25T13:58:56;10.50;91.60
23323;DHT22;11833;52.554;13.554;2024-01-25T14:01:22;10.30;91.60
23323;DHT22;11833;52.554;13.554;2024-01-25T14:03:47;10.10;91.20
23323;DHT22;11833;52.554;13.554;2024-01-25T14:06:13;9.90;91.80
23323;DHT22;11833;52.554;13.554;2024-01-25T14:08:39;9.70;91.80
23323;DHT22;11833;52.554;13.554;2024-01-25T14:11:05;9.70;92.40
23323;DHT22;11833;52.554;13.554;2024-01-25T14:13:32;9.60;92.20
23323;DHT22;11833;52.554;13.554;2024-01-25T14:15:58;9.50;92.50
23323;DHT22;11833;52.554;13.554;2024-01-25T14:18:26;9.50;92.70
23323;DHT22;11833;52.554;13.554;2024-01-25T14:20:53;9.50;93.00
23323;DHT22;11833;52.554;13.554;2024-01-25T14:23:18;9.50;92.90
23323;DHT22;11833;52.554;13.554;2024-01-25T14:25:44;9.40;93.00
23323;DHT22;11833;52.554;13.554;2024-01-25T14:28:10;9.30;93.40
23323;DHT22;11833;52.554;13.554;2024-01-25T14:30:36;9.30;93.70
23323;DHT22;11833;52.554;13.554;2024-01-25T14:33:02;9.30;94.20
23323;DHT22;11833;52.554;13.554;2024-01-25T14:35:29;9.20;94.20
23323;DHT22;11833;52.554;13.554;2024-01-25T14:37:55;9.20;94.50
23323;DHT22;11833;52.554;13.554;2024-01-25T14:40:22;9.20;94.40
23323;DHT22;11833;52.554;13.554;2024-01-25T14:42:48;9.10;94.60
23323;DHT22;11833;52.554;13.554;2024-01-25T14:45:14;9.10;94.60
23323;DHT22;11833;52.554;13.554;2024-01-25T14:47:40;9.10;94.80
23323;DHT22;11833;52.554;13.554;2024-01-25T14:50:06;9.00;95.00
23323;DHT22;11833;52.554;13.554;2024-01-25T14:52:32;8.90;95.00
23323;DHT22;11833;52.554;13.554;2024-01-25T14:55:00;8.90;95.30
23323;DHT22;11833;52.554;13.554;2024-01-25T14:57:26;8.80;95.20
23323;DHT22;11833;52.554;13.554;2024-01-25T14:59:52;8.80;95.40
23323;DHT22;11833;52.554;13.554;2024-01-25T15:02:18;8.70;95.40
23323;DHT22;11833;52.554;13.554;2024-01-25T15:04:44;8.70;95.40
23323;DHT22;11833;52.554;13.554;2024-01-25T15:07:10;8.60;95.70
23323;DHT22;11833;52.554;13.554;2024-01-25T15:09:35;8.50;95.80
23323;DHT22;11833;52.554;13.554;2024-01-25T15:12:01;8.50;95.90
23323;DHT22;11833;52.554;13.554;2024-01-25T15:14:27;8.50;96.00
23323;DHT22;11833;52.554;13.554;2024-01-25T15:16:53;8.40;96.00
23323;DHT22;11833;52.554;13.554;2024-01-25T15:19:18;8.40;96.00
23323;DHT22;11833;52.554;13.554;2024-01-25T15:21:45;8.40;96.00
23323;DHT22;11833;52.554;13.554;2024-01-25T15:24:11;8.30;96.10
23323;DHT22;11833;52.554;13.554;2024-01-25T15:26:40;8.30;96.30